Time;durP1;ratioP1;P1;durP2;ratioP2;P2;SDS_P1;SDS_P2;PMS_P1;PMS_P2;Temp;Humidity;BMP_temperature;BMP_pressure;BME280_temperature;BME280_humidity;BME280_pressure;Samples;Min_cycle;Max_cycle;Signal;HPM_P1;HPM_P2
2022/02/06 00:01:56;;;;;;;3.30;3.00;;;15.90;61.80;;;;;;4952862;28;20127;-19
2022/02/06 00:04:21;;;;;;;3.55;3.25;;;15.90;61.80;;;;;;4951505;28;20078;-18
2022/02/06 00:06:47;;;;;;;3.08;2.85;;;15.90;61.60;;;;;;4938435;28;20540;-18
2022/02/06 00:09:12;;;;;;;3.05;2.75;;;16.00;61.50;;;;;;4950072;28;20077;-18
2022/02/06 00:11:38;;;;;;;3.30;3.10;;;15.90;61.30;;;;;;4943155;28;20082;-19
2022/02/06 00:14:04;;;;;;;3.40;3.15;;;15.90;61.60;;;;;;4941161;28;20437;-19
2022/02/06 00:16:29;;;;;;;3.30;3.00;;;15.90;61.60;;;;;;4933782;28;20087;-19
2022/02/06 00:18:55;;;;;;;2.78;2.58;;;15.90;61.70;;;;;;4936159;28;20452;-19
2022/02/06 00:21:21;;;;;;;2.38;2.28;;;15.90;61.50;;;;;;4953521;28;20425;-18
2022/02/06 00:23:50;;;;;;;2.72;2.50;;;15.90;61.70;;;;;;4953738;28;20039;-18
2022/02/06 00:29:32;;;;;;;2.45;2.30;;;15.90;61.80;;;;;;4933184;28;20110;-19
2022/02/06 00:31:53;;;;;;;3.03;2.72;;;15.90;61.80;;;;;;4959709;28;20097;-18
2022/02/06 00:39:58;;;;;;;;;;;15.80;62.20;;;;;;4951862;28;20192;-19
2022/02/06 00:42:25;;;;;;;2.65;2.45;;;15.80;62.10;;;;;;4937325;28;19995;-18
2022/02/06 00:44:50;;;;;;;3.75;2.50;;;15.80;62.10;;;;;;4937437;28;20773;-18
2022/02/06 00:47:16;;;;;;;2.55;2.35;;;15.80;61.60;;;;;;4937344;28;20409;-18
2022/02/06 00:49:44;;;;;;;2.58;2.38;;;15.80;61.70;;;;;;4937988;29;20055;-18
2022/02/06 00:52:20;;;;;;;2.60;2.40;;;15.90;61.50;;;;;;4937282;28;20043;-19
2022/02/06 00:54:45;;;;;;;3.72;2.40;;;15.90;61.70;;;;;;4948034;28;20051;-18
2022/02/06 00:57:11;;;;;;;3.13;2.00;;;15.90;61.60;;;;;;4952127;28;20066;-19
2022/02/06 00:59:37;;;;;;;2.05;1.83;;;15.90;61.60;;;;;;4956845;28;20130;-19
2022/02/06 01:02:02;;;;;;;2.35;2.15;;;15.90;61.80;;;;;;4945221;28;20048;-18
2022/02/06 01:04:33;;;;;;;2.40;2.20;;;15.90;61.70;;;;;;4937675;29;20107;-19
2022/02/06 01:06:59;;;;;;;2.00;1.90;;;15.90;61.70;;;;;;4938209;28;20170;-19
2022/02/06 01:09:25;;;;;;;2.38;2.20;;;15.80;61.50;;;;;;4956905;28;20130;-18
2022/02/06 01:11:52;;;;;;;2.30;1.77;;;15.80;61.90;;;;;;4956525;28;20074;-18
2022/02/06 01:17:12;;;;;;;2.38;2.28;;;15.80;62.00;;;;;;4937444;29;20091;-18
2022/02/06 01:19:50;;;;;;;2.20;2.10;;;15.80;62.00;;;;;;4937194;28;20066;-19
2022/02/06 01:22:20;;;;;;;1.80;1.70;;;15.80;62.30;;;;;;4936709;28;20082;-19
2022/02/06 01:25:06;;;;;;;2.05;1.95;;;15.70;62.50;;;;;;4941042;28;20442;-19
2022/02/06 01:27:39;;;;;;;2.42;2.22;;;15.60;62.70;;;;;;4940124;28;20405;-19
2022/02/06 01:30:15;;;;;;;2.38;2.03;;;15.60;63.00;;;;;;4940089;28;20048;-18
2022/02/06 01:32:52;;;;;;;2.40;2.22;;;15.60;62.80;;;;;;4940554;28;20047;-19
2022/02/06 01:35:26;;;;;;;1.55;1.45;;;15.60;62.70;;;;;;4965961;28;20058;-19
2022/02/06 01:38:48;;;;;;;;;;;15.60;62.90;;;;;;4966075;28;20051;-19
2022/02/06 01:40:54;;;;;;;1.80;1.70;;;15.60;62.80;;;;;;4952128;28;19926;-18
2022/02/06 01:43:24;;;;;;;2.13;2.03;;;15.60;63.00;;;;;;4958131;28;20047;-18
2022/02/06 01:46:10;;;;;;;2.00;1.90;;;15.60;63.00;;;;;;4966852;28;20057;-19
2022/02/06 02:47:16;;;;;;;1.23;1.13;;;15.80;62.10;;;;;;4956003;28;20101;-19
2022/02/06 02:49:50;;;;;;;1.30;1.20;;;15.70;62.40;;;;;;4958249;28;20134;-19
2022/02/06 02:52:28;;;;;;;1.60;1.50;;;15.70;62.20;;;;;;4957900;28;20035;-18
2022/02/06 02:55:10;;;;;;;1.60;1.50;;;15.60;62.30;;;;;;4948881;28;20039;-18
2022/02/06 02:57:44;;;;;;;1.50;1.40;;;15.70;62.20;;;;;;4937570;28;20079;-19
2022/02/06 03:02:59;;;;;;;1.70;1.58;;;15.60;62.40;;;;;;4939365;29;20102;-18
2022/02/06 03:05:25;;;;;;;1.25;1.15;;;15.60;62.60;;;;;;4938551;28;20072;-19
2022/02/06 03:07:52;;;;;;;1.77;1.20;;;15.70;62.50;;;;;;4939072;28;20047;-18
2022/02/06 03:10:18;;;;;;;1.45;1.35;;;15.60;62.70;;;;;;4938913;28;20044;-19
2022/02/06 03:12:48;;;;;;;1.48;1.38;;;15.70;62.80;;;;;;4938867;28;20059;-19
2022/02/06 03:15:30;;;;;;;1.40;1.30;;;15.70;62.80;;;;;;4938407;28;20409;-18
2022/02/06 03:18:01;;;;;;;1.20;1.10;;;15.60;62.90;;;;;;4938971;28;20047;-18
2022/02/06 03:20:28;;;;;;;1.20;1.10;;;15.60;63.20;;;;;;4938306;28;20043;-19
2022/02/06 03:22:55;;;;;;;1.27;1.17;;;15.60;63.10;;;;;;4938898;29;20048;-18
2022/02/06 03:25:22;;;;;;;1.17;0.90;;;15.60;63.30;;;;;;4938386;28;20047;-18
2022/02/06 03:27:49;;;;;;;0.90;0.90;;;15.60;63.10;;;;;;4937207;28;20051;-19
2022/02/06 03:30:15;;;;;;;1.38;1.20;;;15.60;63.30;;;;;;4938084;28;20054;-19
2022/02/06 03:32:40;;;;;;;1.30;1.15;;;15.70;63.60;;;;;;4938951;28;20054;-18
2022/02/06 03:35:06;;;;;;;1.35;1.25;;;15.60;63.50;;;;;;4937998;28;20043;-19
2022/02/06 03:37:32;;;;;;;1.20;1.10;;;15.60;63.40;;;;;;4938432;28;20086;-19
2022/02/06 03:40:00;;;;;;;1.20;1.20;;;15.60;63.40;;;;;;4938626;29;20063;-19
2022/02/06 03:42:33;;;;;;;1.20;1.20;;;15.60;63.70;;;;;;4937766;28;20485;-18
2022/02/06 03:45:04;;;;;;;0.98;0.98;;;15.60;63.70;;;;;;4938564;28;20099;-18
2022/02/06 03:47:45;;;;;;;1.27;1.10;;;15.60;63.80;;;;;;4956935;28;20058;-19
2022/02/06 03:50:12;;;;;;;1.50;0.90;;;15.60;63.80;;;;;;4943492;28;20052;-18
2022/02/06 03:52:45;;;;;;;1.10;1.00;;;15.60;63.50;;;;;;4938410;28;20047;-19
2022/02/06 03:55:18;;;;;;;0.98;0.98;;;15.60;63.50;;;;;;4950572;28;20448;-19
2022/02/06 03:57:45;;;;;;;1.25;1.15;;;15.60;63.40;;;;;;4960096;28;20051;-18
2022/02/06 04:00:11;;;;;;;1.02;0.90;;;15.70;63.60;;;;;;4973933;28;20039;-19
2022/02/06 04:02:36;;;;;;;0.90;0.90;;;15.60;63.50;;;;;;4976843;28;20100;-18
2022/02/06 04:05:02;;;;;;;1.40;1.20;;;15.60;63.60;;;;;;4976794;28;20047;-18
2022/02/06 04:07:28;;;;;;;1.63;1.00;;;15.60;63.40;;;;;;4968449;28;20079;-18
2022/02/06 04:09:56;;;;;;;1.10;1.00;;;15.60;63.40;;;;;;4938288;28;20091;-18
2022/02/06 04:12:23;;;;;;;1.00;0.85;;;15.60;63.70;;;;;;4937392;28;20047;-18
2022/02/06 04:17:21;;;;;;;1.05;1.00;;;15.60;63.50;;;;;;4937432;28;21673;-19
2022/02/06 04:19:46;;;;;;;0.88;0.88;;;15.70;63.50;;;;;;4938206;28;20090;-19
2022/02/06 04:22:12;;;;;;;1.00;1.00;;;15.70;63.50;;;;;;4937593;28;20044;-18
2022/02/06 04:24:38;;;;;;;0.60;0.60;;;15.60;63.70;;;;;;4937036;28;20051;-18
2022/02/06 04:27:04;;;;;;;0.80;0.80;;;15.60;63.80;;;;;;4937334;28;20055;-18
2022/02/06 04:29:30;;;;;;;1.02;1.02;;;15.60;63.70;;;;;;4937441;28;20051;-18
2022/02/06 04:31:55;;;;;;;0.93;0.88;;;15.60;63.50;;;;;;4938064;29;20044;-18
2022/02/06 04:34:23;;;;;;;1.02;0.95;;;15.60;63.50;;;;;;4937501;28;20306;-18
2022/02/06 05:17:16;;;;;;;2.90;0.82;;;15.60;64.00;;;;;;4941176;29;20066;-19
2022/02/06 05:30:16;;;;;;;0.70;0.70;;;15.60;63.90;;;;;;4957300;28;20114;-19
2022/02/06 05:32:58;;;;;;;0.70;0.68;;;15.60;63.80;;;;;;4957913;28;20451;-19
2022/02/06 05:35:24;;;;;;;0.77;0.70;;;15.60;63.70;;;;;;4957541;28;20047;-19
2022/02/06 05:37:50;;;;;;;0.73;0.60;;;15.50;63.90;;;;;;4946192;28;20051;-18
2022/02/06 05:40:15;;;;;;;0.60;0.57;;;15.50;63.70;;;;;;4940232;28;20143;-19
2022/02/06 05:42:43;;;;;;;0.77;0.70;;;15.60;63.90;;;;;;4940602;29;20043;-19
2022/02/06 05:45:09;;;;;;;0.70;0.55;;;15.60;63.80;;;;;;4941754;28;20051;-19
2022/02/06 05:47:34;;;;;;;1.45;0.50;;;15.60;64.10;;;;;;4959146;28;20532;-19
2022/02/06 05:50:00;;;;;;;0.82;0.57;;;15.60;64.30;;;;;;4959833;28;20074;-18
2022/02/06 05:52:26;;;;;;;2.05;0.60;;;15.60;64.10;;;;;;4962130;28;20073;-19
2022/02/06 05:54:51;;;;;;;0.50;0.50;;;15.60;64.10;;;;;;4960990;28;20054;-18
2022/02/06 05:57:17;;;;;;;1.27;0.70;;;15.60;63.80;;;;;;4972897;28;20058;-18
2022/02/06 05:59:43;;;;;;;2.00;0.47;;;15.50;63.70;;;;;;4953108;28;20052;-18
2022/02/06 06:02:08;;;;;;;0.82;0.60;;;15.50;64.00;;;;;;4940347;28;20044;-19
2022/02/06 06:04:34;;;;;;;0.82;0.68;;;15.50;64.00;;;;;;4939746;28;20058;-18
2022/02/06 06:07:02;;;;;;;0.70;0.55;;;15.50;64.30;;;;;;4938993;29;20122;-19
2022/02/06 06:09:28;;;;;;;1.00;0.70;;;15.50;64.30;;;;;;4937635;28;20054;-19
2022/02/06 06:11:53;;;;;;;1.30;0.47;;;15.60;64.30;;;;;;4940143;28;20497;-19
2022/02/06 06:14:19;;;;;;;0.80;0.70;;;15.60;64.30;;;;;;4954282;28;20051;-18
2022/02/06 06:16:45;;;;;;;0.70;0.65;;;15.60;64.30;;;;;;4940317;28;20054;-18
2022/02/06 06:19:12;;;;;;;0.60;0.60;;;15.60;64.40;;;;;;4938744;28;20055;-19
2022/02/06 06:21:41;;;;;;;0.57;0.52;;;15.60;64.30;;;;;;4956639;28;20138;-18
2022/02/06 06:24:07;;;;;;;0.55;0.55;;;15.60;64.50;;;;;;4959277;28;20043;-18
2022/02/06 06:26:39;;;;;;;1.05;0.50;;;15.60;64.50;;;;;;4952181;28;20043;-18
2022/02/06 06:29:05;;;;;;;0.70;0.70;;;15.50;64.90;;;;;;4939845;28;20044;-18
2022/02/06 06:31:30;;;;;;;0.57;0.57;;;15.60;64.50;;;;;;4939397;28;20134;-18
2022/02/06 06:33:56;;;;;;;0.70;0.60;;;15.50;64.20;;;;;;4939833;28;20408;-18
2022/02/06 06:36:22;;;;;;;0.70;0.60;;;15.60;64.30;;;;;;4949569;28;20122;-19
2022/02/06 06:38:52;;;;;;;0.80;0.60;;;15.60;64.50;;;;;;4972258;28;20117;-18
2022/02/06 06:41:17;;;;;;;1.20;0.70;;;15.50;65.00;;;;;;4950561;28;20280;-19
2022/02/06 06:43:43;;;;;;;0.65;0.60;;;15.50;64.90;;;;;;4958859;28;20273;-18
2022/02/06 06:46:09;;;;;;;0.73;0.57;;;15.50;64.90;;;;;;4959033;28;20051;-18
2022/02/06 06:48:35;;;;;;;2.08;0.50;;;15.50;64.80;;;;;;4969309;28;20034;-18
2022/02/06 06:51:00;;;;;;;0.60;0.60;;;15.50;64.80;;;;;;4969988;28;20133;-19
2022/02/06 06:53:27;;;;;;;0.60;0.52;;;15.50;64.40;;;;;;4961764;28;20095;-19
2022/02/06 06:56:01;;;;;;;1.05;0.65;;;15.50;64.80;;;;;;4972491;28;20079;-18
2022/02/06 06:58:38;;;;;;;0.50;0.40;;;15.50;65.00;;;;;;4974242;28;20043;-19
2022/02/06 07:03:31;;;;;;;0.60;0.60;;;15.40;65.00;;;;;;4955794;28;20409;-19
2022/02/06 07:05:57;;;;;;;1.02;0.60;;;15.50;64.80;;;;;;4957149;28;20053;-18
2022/02/06 07:08:23;;;;;;;0.73;0.40;;;15.50;64.80;;;;;;4960691;28;20043;-19
2022/02/06 07:10:48;;;;;;;0.52;0.40;;;15.40;64.90;;;;;;4955324;28;20050;-20
2022/02/06 07:13:14;;;;;;;0.70;0.70;;;15.50;65.00;;;;;;4957786;28;20475;-19
2022/02/06 07:15:40;;;;;;;0.38;0.38;;;15.50;64.80;;;;;;4953551;28;20150;-20
2022/02/06 07:18:06;;;;;;;0.73;0.40;;;15.50;65.00;;;;;;4958514;28;20043;-18
2022/02/06 07:20:33;;;;;;;0.43;0.43;;;15.50;65.10;;;;;;4959349;28;20503;-19
2022/02/06 07:22:59;;;;;;;0.50;0.50;;;15.40;65.30;;;;;;4955169;28;20130;-18
2022/02/06 07:25:26;;;;;;;0.80;0.60;;;15.40;64.80;;;;;;4958628;28;20047;-19
2022/02/06 07:27:53;;;;;;;0.60;0.60;;;15.50;64.90;;;;;;4957107;28;20047;-21
2022/02/06 07:30:19;;;;;;;0.40;0.40;;;15.50;64.60;;;;;;4957553;28;20126;-19
2022/02/06 07:32:44;;;;;;;0.65;0.47;;;15.40;64.50;;;;;;4955957;28;20051;-18
2022/02/06 07:35:11;;;;;;;0.80;0.57;;;15.50;64.70;;;;;;4951951;28;20048;-19
2022/02/06 07:37:37;;;;;;;0.60;0.60;;;15.50;64.70;;;;;;4959367;28;20061;-18
2022/02/06 07:40:04;;;;;;;1.88;0.50;;;15.50;64.80;;;;;;4958722;28;20051;-19
2022/02/06 07:42:30;;;;;;;1.10;0.65;;;15.50;64.90;;;;;;4966877;28;20034;-19
2022/02/06 07:44:55;;;;;;;0.77;0.55;;;15.50;64.80;;;;;;4960355;28;20138;-19
2022/02/06 07:47:23;;;;;;;0.80;0.50;;;15.40;64.60;;;;;;4964181;28;20496;-19
2022/02/06 07:49:51;;;;;;;0.50;0.50;;;15.40;64.30;;;;;;4959616;28;20061;-19
2022/02/06 07:52:21;;;;;;;0.57;0.40;;;15.50;64.60;;;;;;4976930;28;20039;-18
2022/02/06 07:54:47;;;;;;;0.57;0.57;;;15.40;64.90;;;;;;4959992;28;20408;-19
2022/02/06 07:57:13;;;;;;;0.52;0.50;;;15.50;64.80;;;;;;4955584;28;20043;-18
2022/02/06 07:59:38;;;;;;;0.60;0.50;;;15.50;64.60;;;;;;4955429;28;20054;-19
2022/02/06 08:02:06;;;;;;;0.55;0.40;;;15.50;64.60;;;;;;4952990;28;20540;-18
2022/02/06 08:04:32;;;;;;;1.30;0.55;;;15.50;65.10;;;;;;4962637;28;20034;-18
2022/02/06 08:06:57;;;;;;;0.57;0.30;;;15.40;65.00;;;;;;4953728;28;20102;-18
2022/02/06 08:12:08;;;;;;;0.57;0.47;;;15.50;64.80;;;;;;4954359;28;20062;-18
2022/02/06 08:14:54;;;;;;;1.38;0.30;;;15.50;64.90;;;;;;4953874;28;20047;-19
2022/02/06 08:17:24;;;;;;;0.43;0.40;;;15.40;64.60;;;;;;4965052;28;20051;-19
2022/02/06 08:19:50;;;;;;;0.47;0.40;;;15.50;64.60;;;;;;4939349;28;20583;-18
2022/02/06 08:22:16;;;;;;;0.63;0.50;;;15.50;64.80;;;;;;4972667;28;20047;-18
2022/02/06 08:24:42;;;;;;;0.30;0.30;;;15.50;64.80;;;;;;4953498;28;20051;-18
2022/02/06 08:27:08;;;;;;;0.63;0.38;;;15.50;64.70;;;;;;4958699;28;20072;-19
2022/02/06 08:29:36;;;;;;;0.60;0.40;;;15.50;64.60;;;;;;4955748;28;20130;-19
2022/02/06 08:32:02;;;;;;;0.45;0.40;;;15.50;64.70;;;;;;4960716;28;20508;-19
2022/02/06 08:34:28;;;;;;;0.77;0.40;;;15.50;64.70;;;;;;4962298;28;20039;-18
2022/02/06 08:36:53;;;;;;;0.40;0.30;;;15.40;64.60;;;;;;4966639;28;20110;-18
2022/02/06 08:39:19;;;;;;;0.50;0.30;;;15.40;64.70;;;;;;4955969;28;20066;-19
2022/02/06 08:41:44;;;;;;;0.30;0.30;;;15.50;64.50;;;;;;4969687;28;20066;-19
2022/02/06 08:44:10;;;;;;;2.75;0.57;;;15.40;64.60;;;;;;4967330;28;20039;-18
2022/02/06 08:46:36;;;;;;;0.90;0.50;;;15.50;64.80;;;;;;4962663;28;20124;-18
2022/02/06 08:49:01;;;;;;;0.40;0.40;;;15.40;64.60;;;;;;4610748;28;10000573;-19
2022/02/06 08:51:27;;;;;;;0.50;0.50;;;15.50;64.60;;;;;;4954101;28;20095;-19
2022/02/06 08:53:53;;;;;;;0.75;0.47;;;15.40;65.00;;;;;;4954447;28;20070;-18
2022/02/06 08:56:18;;;;;;;0.57;0.40;;;15.50;64.60;;;;;;4964039;28;20581;-18
2022/02/06 08:58:44;;;;;;;1.20;0.50;;;15.40;64.30;;;;;;4954251;28;20106;-18
2022/02/06 09:01:09;;;;;;;1.85;0.70;;;15.50;64.30;;;;;;4953400;28;20054;-18
2022/02/06 09:03:35;;;;;;;1.17;0.90;;;15.40;64.20;;;;;;4956205;28;20043;-18
2022/02/06 09:06:01;;;;;;;3.67;1.38;;;15.50;64.20;;;;;;4953286;28;20040;-19
2022/02/06 09:08:26;;;;;;;2.35;1.52;;;15.40;63.40;;;;;;4948578;28;20083;-19
2022/02/06 09:10:52;;;;;;;2.42;1.13;;;15.30;63.10;;;;;;4955900;28;20078;-18
2022/02/06 09:13:19;;;;;;;1.48;1.38;;;15.30;64.20;;;;;;4955864;28;20133;-18
2022/02/06 09:15:44;;;;;;;1.88;1.30;;;15.40;63.10;;;;;;4953588;28;20472;-19
2022/02/06 09:18:10;;;;;;;1.60;1.30;;;15.30;63.60;;;;;;4951783;28;20154;-18
2022/02/06 09:20:36;;;;;;;1.80;1.38;;;15.30;63.60;;;;;;4953752;28;20051;-18
2022/02/06 09:23:02;;;;;;;2.58;1.50;;;15.30;63.70;;;;;;4957338;28;20575;-18
2022/02/06 09:25:27;;;;;;;4.75;1.70;;;15.30;63.80;;;;;;4952970;28;20058;-19
2022/02/06 09:27:53;;;;;;;2.75;1.30;;;15.30;63.90;;;;;;4955969;28;20516;-18
2022/02/06 09:30:21;;;;;;;1.52;1.40;;;15.30;64.00;;;;;;4955568;28;20051;-18
2022/02/06 09:35:13;;;;;;;2.03;1.60;;;15.30;63.90;;;;;;4953060;28;20126;-18
2022/02/06 09:37:39;;;;;;;1.75;1.58;;;15.30;64.00;;;;;;4951818;28;20070;-18
2022/02/06 09:40:08;;;;;;;2.38;1.35;;;15.30;64.00;;;;;;4958189;28;20043;-19
2022/02/06 09:42:34;;;;;;;1.90;1.30;;;15.40;63.90;;;;;;4958237;28;20042;-18
2022/02/06 09:45:00;;;;;;;1.70;1.45;;;15.30;64.00;;;;;;4951672;28;20047;-18
2022/02/06 09:47:27;;;;;;;1.60;1.50;;;15.30;64.10;;;;;;4953732;28;20055;-19
2022/02/06 09:49:53;;;;;;;1.38;1.27;;;15.30;64.00;;;;;;4943567;28;20412;-18
2022/02/06 09:52:25;;;;;;;1.63;1.40;;;15.30;63.90;;;;;;4953431;28;20039;-18
2022/02/06 09:54:54;;;;;;;2.67;1.45;;;15.30;64.00;;;;;;4946558;28;20499;-18
2022/02/06 09:57:38;;;;;;;1.30;1.20;;;15.40;64.00;;;;;;4955310;28;20051;-18
2022/02/06 10:00:04;;;;;;;1.63;1.20;;;15.40;64.00;;;;;;4951887;28;20043;-18
2022/02/06 10:02:32;;;;;;;1.63;1.52;;;15.40;64.00;;;;;;4951686;28;20218;-19
2022/02/06 10:04:58;;;;;;;1.83;1.10;;;15.40;64.20;;;;;;4955902;28;20043;-19
2022/02/06 10:07:41;;;;;;;2.47;1.20;;;15.40;64.20;;;;;;4949311;28;20047;-18
2022/02/06 10:10:09;;;;;;;1.20;1.00;;;15.40;64.10;;;;;;4959144;28;20078;-19
2022/02/06 10:12:40;;;;;;;1.40;1.25;;;15.40;64.10;;;;;;4952962;28;20380;-18
2022/02/06 10:15:07;;;;;;;1.50;1.40;;;15.40;64.20;;;;;;4953889;28;20138;-18
2022/02/06 10:17:35;;;;;;;1.80;1.33;;;15.40;64.20;;;;;;4952570;28;20067;-18
2022/02/06 10:20:01;;;;;;;2.55;1.27;;;15.40;64.20;;;;;;4951756;28;20039;-18
2022/02/06 10:22:56;;;;;;;1.63;1.52;;;15.40;64.20;;;;;;4952138;28;20394;-18
2022/02/06 10:25:17;;;;;;;1.00;1.00;;;15.40;64.20;;;;;;4948163;28;20102;-18
2022/02/06 10:27:48;;;;;;;1.20;1.10;;;15.40;64.20;;;;;;4953341;28;20039;-19
2022/02/06 10:30:37;;;;;;;1.35;1.00;;;15.40;64.30;;;;;;4953143;28;20050;-18
2022/02/06 10:33:07;;;;;;;1.10;1.00;;;15.40;64.40;;;;;;4944694;28;20041;-18
2022/02/06 10:35:40;;;;;;;1.05;1.05;;;15.40;64.30;;;;;;4953141;28;20051;-19
2022/02/06 10:38:16;;;;;;;1.20;1.10;;;15.40;64.30;;;;;;4948253;29;20051;-19
2022/02/06 10:40:46;;;;;;;1.10;1.00;;;15.40;64.30;;;;;;4946176;28;20051;-19
2022/02/06 10:43:11;;;;;;;1.20;1.13;;;15.40;64.40;;;;;;4956951;28;20095;-18
2022/02/06 10:45:38;;;;;;;1.10;1.00;;;15.40;64.50;;;;;;4951774;28;20117;-19
2022/02/06 10:48:04;;;;;;;1.20;1.10;;;15.50;64.40;;;;;;4958284;28;20054;-18
2022/02/06 10:50:31;;;;;;;1.17;1.00;;;15.50;64.40;;;;;;4935657;28;20051;-20
2022/02/06 10:53:10;;;;;;;1.05;0.95;;;15.50;64.40;;;;;;4955021;28;20044;-18
2022/02/06 10:55:55;;;;;;;1.15;1.05;;;15.50;64.40;;;;;;4949714;28;20059;-18
2022/02/06 10:58:25;;;;;;;1.38;1.20;;;15.50;64.40;;;;;;4951803;28;20075;-18
2022/02/06 11:00:50;;;;;;;1.15;0.90;;;15.50;64.40;;;;;;4943948;28;20056;-18
2022/02/06 11:03:22;;;;;;;1.00;0.90;;;15.50;64.50;;;;;;4952002;28;20058;-19
2022/02/06 11:05:51;;;;;;;1.08;0.98;;;15.50;64.40;;;;;;4945655;28;20062;-19
2022/02/06 11:08:24;;;;;;;1.17;1.08;;;15.50;64.40;;;;;;4949466;28;20071;-19
2022/02/06 11:10:55;;;;;;;0.93;0.80;;;15.50;64.40;;;;;;4947334;28;20190;-18
2022/02/06 11:13:20;;;;;;;0.80;0.80;;;15.50;64.40;;;;;;4952101;28;20071;-18
2022/02/06 11:15:46;;;;;;;0.90;0.90;;;15.50;64.40;;;;;;4947227;28;20096;-18
2022/02/06 11:18:19;;;;;;;0.75;0.75;;;15.60;64.40;;;;;;4953027;28;20062;-18
2022/02/06 11:21:05;;;;;;;1.17;0.82;;;15.60;64.30;;;;;;4956882;28;20090;-18
2022/02/06 11:23:39;;;;;;;1.00;0.90;;;15.60;64.40;;;;;;4946185;28;20059;-18
2022/02/06 11:26:06;;;;;;;0.80;0.80;;;15.60;64.30;;;;;;4953020;28;20055;-18
2022/02/06 11:28:32;;;;;;;0.90;0.73;;;15.60;64.40;;;;;;4953427;28;20043;-18
2022/02/06 11:30:58;;;;;;;0.80;0.80;;;15.60;64.30;;;;;;4954118;28;20123;-19
2022/02/06 11:33:24;;;;;;;1.75;0.80;;;15.60;64.30;;;;;;4952718;28;20075;-18
2022/02/06 11:35:56;;;;;;;0.90;0.85;;;15.60;64.40;;;;;;4958454;28;20329;-18
2022/02/06 11:44:42;;;;;;;1.33;0.65;;;15.60;64.30;;;;;;4949725;28;20074;-18
2022/02/06 11:47:22;;;;;;;0.90;0.90;;;15.60;64.20;;;;;;4953321;28;20055;-19
2022/02/06 11:49:49;;;;;;;0.82;0.82;;;15.60;64.20;;;;;;4953021;28;20047;-19
2022/02/06 11:52:15;;;;;;;3.05;1.00;;;15.60;64.20;;;;;;4948552;28;20835;-18
2022/02/06 11:54:44;;;;;;;0.60;0.60;;;15.60;64.20;;;;;;4956629;28;20134;-18
2022/02/06 11:57:19;;;;;;;1.10;0.82;;;15.70;64.30;;;;;;4952333;28;20286;-19
2022/02/06 12:00:03;;;;;;;4.32;1.30;;;15.70;64.40;;;;;;4951873;28;20083;-18
2022/02/06 12:02:39;;;;;;;1.08;1.00;;;15.70;64.10;;;;;;4953618;28;20054;-18
2022/02/06 12:05:20;;;;;;;1.55;1.27;;;15.70;64.20;;;;;;4947377;28;20078;-19
2022/02/06 12:07:52;;;;;;;1.98;1.88;;;15.60;64.30;;;;;;4948104;28;20070;-19
2022/02/06 12:10:33;;;;;;;2.95;2.75;;;15.70;64.40;;;;;;4957088;28;20507;-18
2022/02/06 12:13:38;;;;;;;3.45;3.10;;;15.60;64.30;;;;;;4952725;28;20357;-19
2022/02/06 12:16:05;;;;;;;6.15;2.90;;;15.70;64.40;;;;;;4950731;28;20135;-18
2022/02/06 12:18:32;;;;;;;3.75;3.33;;;15.70;64.40;;;;;;4944845;28;20066;-19
2022/02/06 12:21:12;;;;;;;3.60;3.17;;;15.70;64.20;;;;;;4952559;28;20110;-19
2022/02/06 12:24:01;;;;;;;3.50;2.90;;;15.80;64.30;;;;;;4951908;28;20039;-19
2022/02/06 12:26:28;;;;;;;3.60;3.30;;;15.80;64.40;;;;;;4946170;28;20052;-19
2022/02/06 12:28:58;;;;;;;3.20;2.92;;;15.80;64.20;;;;;;4949126;28;20536;-19
2022/02/06 12:31:28;;;;;;;2.95;2.65;;;15.80;64.10;;;;;;4953159;28;20047;-19
2022/02/06 12:33:58;;;;;;;3.00;2.80;;;15.80;64.20;;;;;;4950855;28;20043;-19
2022/02/06 12:39:28;;;;;;;2.75;2.55;;;15.80;64.10;;;;;;4940037;28;20098;-18
2022/02/06 12:41:55;;;;;;;2.70;2.50;;;15.90;64.00;;;;;;4957514;28;20051;-19
2022/02/06 12:44:21;;;;;;;3.35;2.45;;;15.90;64.10;;;;;;4952335;28;20109;-19
2022/02/06 12:46:47;;;;;;;2.75;2.55;;;15.90;64.10;;;;;;4944233;28;20048;-18
2022/02/06 12:49:15;;;;;;;2.65;2.38;;;15.90;64.10;;;;;;4937342;28;20058;-19
2022/02/06 12:51:41;;;;;;;3.88;2.60;;;15.90;64.00;;;;;;4930307;28;20058;-19
2022/02/06 12:54:08;;;;;;;2.55;2.30;;;16.00;64.10;;;;;;4938528;29;20027;-18
2022/02/06 12:56:34;;;;;;;3.28;2.30;;;16.00;64.00;;;;;;4937731;29;20055;-18
2022/02/06 12:59:00;;;;;;;2.72;2.53;;;15.90;64.20;;;;;;4926635;29;20036;-19
2022/02/06 13:01:38;;;;;;;2.70;2.40;;;16.00;64.00;;;;;;4930219;29;20028;-19
2022/02/06 13:04:05;;;;;;;2.10;1.92;;;16.00;64.10;;;;;;4934272;29;20031;-18
2022/02/06 13:06:37;;;;;;;2.20;2.05;;;16.00;64.10;;;;;;4923035;29;20054;-18
2022/02/06 13:09:06;;;;;;;2.70;2.50;;;16.00;64.00;;;;;;4929523;29;20047;-18
2022/02/06 13:11:42;;;;;;;3.20;2.40;;;16.00;64.00;;;;;;4933740;29;20032;-19
2022/02/06 13:19:44;;;;;;;2.17;1.98;;;16.10;63.80;;;;;;4934593;29;20038;-19
2022/02/06 13:22:32;;;;;;;3.70;2.30;;;16.10;63.80;;;;;;4938301;29;20035;-19
2022/02/06 13:25:18;;;;;;;2.65;2.17;;;16.10;63.90;;;;;;4937690;29;20036;-19
2022/02/06 13:30:31;;;;;;;2.10;2.00;;;16.20;64.00;;;;;;4931860;29;20052;-19
2022/02/06 13:33:06;;;;;;;2.17;1.90;;;16.10;64.00;;;;;;4936188;29;20031;-19
2022/02/06 13:35:42;;;;;;;2.00;1.80;;;16.20;64.10;;;;;;4933506;29;20102;-19
2022/02/06 13:38:11;;;;;;;2.05;1.95;;;16.20;64.00;;;;;;4937924;29;20023;-19
2022/02/06 13:40:45;;;;;;;1.85;1.63;;;16.20;64.00;;;;;;4938059;29;20527;-19
2022/02/06 13:43:17;;;;;;;1.80;1.70;;;16.20;63.90;;;;;;4930700;29;20493;-19
2022/02/06 13:45:43;;;;;;;2.20;2.00;;;16.20;63.80;;;;;;4935831;29;20119;-19
2022/02/06 13:48:10;;;;;;;2.00;1.83;;;16.20;63.80;;;;;;4930623;29;20059;-19
2022/02/06 13:50:42;;;;;;;3.13;2.10;;;16.20;63.90;;;;;;4919706;29;20028;-19
2022/02/06 13:53:19;;;;;;;1.83;1.73;;;16.20;63.80;;;;;;4935556;29;20183;-19
2022/02/06 13:55:49;;;;;;;1.80;1.70;;;16.20;63.80;;;;;;4937019;29;20449;-19
2022/02/06 13:58:16;;;;;;;1.95;1.70;;;16.20;64.00;;;;;;4936273;29;20107;-18
2022/02/06 14:01:01;;;;;;;2.13;1.92;;;16.20;64.00;;;;;;4928022;29;20050;-19
2022/02/06 14:03:40;;;;;;;;;;;16.20;64.00;;;;;;4937251;29;20126;-19
2022/02/06 14:06:06;;;;;;;3.53;2.15;;;16.20;64.10;;;;;;4937469;29;19907;-19
2022/02/06 14:08:35;;;;;;;1.90;1.80;;;16.20;64.00;;;;;;4934689;29;20039;-19
2022/02/06 14:11:09;;;;;;;1.88;1.77;;;16.20;64.00;;;;;;4934940;29;20105;-19
2022/02/06 14:13:35;;;;;;;3.50;2.00;;;16.20;64.00;;;;;;4935392;29;20053;-18
2022/02/06 14:16:04;;;;;;;1.65;1.48;;;16.20;64.00;;;;;;4936384;29;20059;-19
2022/02/06 14:18:30;;;;;;;2.95;1.92;;;16.20;64.00;;;;;;4935694;29;20039;-18
2022/02/06 14:20:57;;;;;;;1.63;1.50;;;16.30;64.00;;;;;;4934826;29;20107;-18
2022/02/06 14:23:23;;;;;;;2.88;1.58;;;16.20;64.00;;;;;;4933462;29;20101;-19
2022/02/06 14:25:48;;;;;;;1.83;1.73;;;16.20;64.00;;;;;;4936013;29;20040;-19
2022/02/06 14:28:24;;;;;;;3.10;1.80;;;16.20;63.90;;;;;;4934446;29;20063;-19
2022/02/06 14:30:50;;;;;;;2.28;2.08;;;16.20;64.00;;;;;;4939187;28;20075;-19
2022/02/06 14:33:26;;;;;;;2.10;1.90;;;16.20;64.00;;;;;;4933271;29;20044;-19
2022/02/06 14:36:03;;;;;;;1.90;1.70;;;16.20;64.00;;;;;;4933390;29;20086;-18
2022/02/06 14:38:37;;;;;;;1.70;1.60;;;16.30;64.10;;;;;;4936627;29;20043;-19
2022/02/06 14:44:08;;;;;;;2.17;2.08;;;16.20;63.90;;;;;;4929806;29;19964;-18
2022/02/06 14:46:34;;;;;;;2.10;1.90;;;16.20;63.90;;;;;;4935042;29;20043;-18
2022/02/06 14:49:01;;;;;;;2.00;1.80;;;16.20;63.90;;;;;;4935826;29;20095;-19
2022/02/06 14:51:30;;;;;;;2.08;1.98;;;16.20;63.90;;;;;;4931877;29;20806;-19
2022/02/06 14:53:59;;;;;;;2.05;1.85;;;16.20;64.00;;;;;;4936389;29;20107;-18
2022/02/06 14:56:26;;;;;;;1.60;1.50;;;16.20;63.90;;;;;;4931667;29;20103;-19
2022/02/06 14:58:51;;;;;;;1.73;1.63;;;16.20;64.00;;;;;;4936176;29;20075;-19
2022/02/06 15:01:17;;;;;;;1.63;1.52;;;16.30;64.00;;;;;;4931997;29;20080;-18
2022/02/06 15:03:42;;;;;;;2.20;1.75;;;16.20;64.00;;;;;;4936042;29;20035;-19
2022/02/06 15:06:08;;;;;;;1.70;1.50;;;16.30;64.10;;;;;;4935927;29;20042;-19
2022/02/06 15:08:33;;;;;;;1.60;1.50;;;16.20;64.00;;;;;;4933592;29;20512;-18
2022/02/06 15:10:59;;;;;;;1.75;1.65;;;16.30;64.10;;;;;;4936296;29;20035;-19
2022/02/06 15:13:30;;;;;;;1.77;1.60;;;16.30;64.50;;;;;;4930392;29;20397;-19
2022/02/06 15:16:00;;;;;;;1.60;1.50;;;16.30;64.40;;;;;;4932585;29;20047;-19
2022/02/06 15:18:36;;;;;;;2.15;1.42;;;16.30;64.40;;;;;;4935923;29;20119;-18
2022/02/06 15:21:02;;;;;;;1.98;1.35;;;16.30;64.40;;;;;;4934034;29;20075;-18
2022/02/06 15:23:28;;;;;;;1.50;1.40;;;16.30;64.50;;;;;;4931726;29;20377;-19
2022/02/06 15:25:54;;;;;;;1.80;1.70;;;16.30;64.40;;;;;;4935330;29;20054;-19
2022/02/06 15:28:20;;;;;;;1.50;1.40;;;16.30;65.40;;;;;;4933628;29;20076;-18
2022/02/06 15:30:46;;;;;;;2.25;1.30;;;16.30;64.70;;;;;;4931451;29;20063;-19
2022/02/06 15:33:11;;;;;;;2.08;1.65;;;16.20;64.70;;;;;;4935524;29;20053;-19